sensor_id;sensor_type;location;lat;lon;timestamp;pressure;altitude;pressure_sealevel;temperature;humidity
29825;BME280;16713;52.916;12.834;2022-09-09T00:03:51;100356.94;;;15.60;89.33
29825;BME280;16713;52.916;12.834;2022-09-09T00:11:15;100354.16;;;15.77;88.29
29825;BME280;16713;52.916;12.834;2022-09-09T00:13:46;100354.16;;;15.88;87.40
29825;BME280;16713;52.916;12.834;2022-09-09T00:16:16;100351.78;;;15.86;86.24
29825;BME280;16713;52.916;12.834;2022-09-09T00:21:14;100341.47;;;15.94;86.75
29825;BME280;16713;52.916;12.834;2022-09-09T00:23:46;100345.41;;;16.07;86.00
29825;BME280;16713;52.916;12.834;2022-09-09T00:31:32;100349.75;;;16.04;85.75
29825;BME280;16713;52.916;12.834;2022-09-09T00:34:00;100351.72;;;16.00;85.65
29825;BME280;16713;52.916;12.834;2022-09-09T00:36:29;100345.00;;;16.05;85.19
29825;BME280;16713;52.916;12.834;2022-09-09T00:38:59;100354.47;;;16.11;85.05
29825;BME280;16713;52.916;12.834;2022-09-09T00:46:50;100351.72;;;16.00;84.90
29825;BME280;16713;52.916;12.834;2022-09-09T00:57:26;100354.56;;;15.79;85.35
29825;BME280;16713;52.916;12.834;2022-09-09T01:02:42;100362.09;;;15.68;85.74
29825;BME280;16713;52.916;12.834;2022-09-09T01:05:13;100351.03;;;15.72;85.50
29825;BME280;16713;52.916;12.834;2022-09-09T01:07:44;100351.41;;;15.70;85.35
29825;BME280;16713;52.916;12.834;2022-09-09T01:10:27;100366.03;;;15.64;85.73
29825;BME280;16713;52.916;12.834;2022-09-09T01:12:56;100359.34;;;15.54;86.24
29825;BME280;16713;52.916;12.834;2022-09-09T01:15:26;100366.03;;;15.60;85.50
29825;BME280;16713;52.916;12.834;2022-09-09T01:28:43;100368.03;;;15.53;84.85
29825;BME280;16713;52.916;12.834;2022-09-09T01:31:13;100371.56;;;15.46;85.33
29825;BME280;16713;52.916;12.834;2022-09-09T01:33:40;100358.94;;;15.42;86.02
29825;BME280;16713;52.916;12.834;2022-09-09T01:36:12;100354.97;;;15.46;84.83
29825;BME280;16713;52.916;12.834;2022-09-09T01:38:41;100361.28;;;15.40;85.37
29825;BME280;16713;52.916;12.834;2022-09-09T01:41:07;100355.75;;;15.40;85.60
29825;BME280;16713;52.916;12.834;2022-09-09T01:43:34;100363.66;;;15.27;85.34
29825;BME280;16713;52.916;12.834;2022-09-09T01:46:02;100352.19;;;15.39;85.39
29825;BME280;16713;52.916;12.834;2022-09-09T01:48:28;100362.84;;;15.37;85.00
29825;BME280;16713;52.916;12.834;2022-09-09T01:50:55;100360.50;;;15.25;85.37
29825;BME280;16713;52.916;12.834;2022-09-09T01:53:22;100366.03;;;15.46;85.30
29825;BME280;16713;52.916;12.834;2022-09-09T01:58:45;100371.94;;;15.34;85.67
29825;BME280;16713;52.916;12.834;2022-09-09T02:03:44;100368.78;;;15.46;85.04
29825;BME280;16713;52.916;12.834;2022-09-09T02:08:42;100380.25;;;15.59;84.46
29825;BME280;16713;52.916;12.834;2022-09-09T02:11:16;100381.84;;;15.60;84.27
29825;BME280;16713;52.916;12.834;2022-09-09T02:13:44;100374.34;;;15.64;84.24
29825;BME280;16713;52.916;12.834;2022-09-09T02:16:19;100381.03;;;15.66;83.50
29825;BME280;16713;52.916;12.834;2022-09-09T02:18:50;100386.97;;;15.61;83.24
29825;BME280;16713;52.916;12.834;2022-09-09T02:21:17;100382.22;;;15.58;82.93
29825;BME280;16713;52.916;12.834;2022-09-09T02:23:44;100375.13;;;15.64;83.12
29825;BME280;16713;52.916;12.834;2022-09-09T02:26:13;100372.38;;;15.61;83.58
29825;BME280;16713;52.916;12.834;2022-09-09T02:28:46;100375.53;;;15.59;83.37
29825;BME280;16713;52.916;12.834;2022-09-09T02:31:13;100383.44;;;15.64;82.25
29825;BME280;16713;52.916;12.834;2022-09-09T02:33:42;100383.03;;;15.66;82.40
29825;BME280;16713;52.916;12.834;2022-09-09T02:36:10;100381.03;;;15.66;82.03
29825;BME280;16713;52.916;12.834;2022-09-09T02:38:39;100382.63;;;15.60;82.67
29825;BME280;16713;52.916;12.834;2022-09-09T02:41:08;100384.19;;;15.61;82.28
29825;BME280;16713;52.916;12.834;2022-09-09T02:43:36;100387.34;;;15.60;81.62
29825;BME280;16713;52.916;12.834;2022-09-09T02:46:07;100390.53;;;15.62;82.11
29825;BME280;16713;52.916;12.834;2022-09-09T02:51:09;100383.44;;;15.57;82.29
29825;BME280;16713;52.916;12.834;2022-09-09T02:56:17;100392.09;;;15.49;81.61
29825;BME280;16713;52.916;12.834;2022-09-09T02:58:46;100385.38;;;15.46;81.70
29825;BME280;16713;52.916;12.834;2022-09-09T03:01:12;100395.25;;;15.37;80.95
29825;BME280;16713;52.916;12.834;2022-09-09T03:03:40;100397.22;;;15.43;81.06
29825;BME280;16713;52.916;12.834;2022-09-09T03:06:07;100389.72;;;15.40;80.29
29825;BME280;16713;52.916;12.834;2022-09-09T03:08:33;100397.22;;;15.36;80.63
29825;BME280;16713;52.916;12.834;2022-09-09T03:11:00;100402.75;;;15.36;80.04
29825;BME280;16713;52.916;12.834;2022-09-09T03:13:27;100405.13;;;15.45;80.09
29825;BME280;16713;52.916;12.834;2022-09-09T03:15:53;100401.16;;;15.28;79.37
29825;BME280;16713;52.916;12.834;2022-09-09T03:18:20;100403.94;;;15.35;80.35
29825;BME280;16713;52.916;12.834;2022-09-09T03:20:46;100400.75;;;15.26;80.04
29825;BME280;16713;52.916;12.834;2022-09-09T03:23:14;100408.66;;;15.17;79.99
29825;BME280;16713;52.916;12.834;2022-09-09T03:25:48;100407.09;;;15.16;80.11
29825;BME280;16713;52.916;12.834;2022-09-09T03:28:14;100410.63;;;15.17;79.98
29825;BME280;16713;52.916;12.834;2022-09-09T03:30:41;100412.97;;;15.18;78.88
29825;BME280;16713;52.916;12.834;2022-09-09T03:33:07;100413.00;;;15.22;78.53
29825;BME280;16713;52.916;12.834;2022-09-09T03:35:34;100415.34;;;15.09;78.22
29825;BME280;16713;52.916;12.834;2022-09-09T03:38:00;100409.03;;;15.12;78.89
29825;BME280;16713;52.916;12.834;2022-09-09T03:40:26;100415.75;;;15.08;78.06
29825;BME280;16713;52.916;12.834;2022-09-09T03:42:53;100422.44;;;15.10;77.42
29825;BME280;16713;52.916;12.834;2022-09-09T03:45:19;100418.91;;;15.10;77.69
29825;BME280;16713;52.916;12.834;2022-09-09T03:47:46;100420.47;;;14.97;77.45
29825;BME280;16713;52.916;12.834;2022-09-09T03:50:12;100424.78;;;14.87;78.19
29825;BME280;16713;52.916;12.834;2022-09-09T03:52:39;100423.19;;;14.90;77.61
29825;BME280;16713;52.916;12.834;2022-09-09T03:55:07;100425.56;;;14.95;77.77
29825;BME280;16713;52.916;12.834;2022-09-09T03:57:34;100429.50;;;14.97;77.97
29825;BME280;16713;52.916;12.834;2022-09-09T04:00:05;100433.47;;;15.00;77.22
29825;BME280;16713;52.916;12.834;2022-09-09T04:02:31;100436.63;;;14.98;77.45
29825;BME280;16713;52.916;12.834;2022-09-09T04:04:58;100428.72;;;14.90;77.73
29825;BME280;16713;52.916;12.834;2022-09-09T04:07:25;100434.28;;;14.97;77.68
29825;BME280;16713;52.916;12.834;2022-09-09T04:09:53;100426.34;;;14.88;77.63
29825;BME280;16713;52.916;12.834;2022-09-09T04:12:20;100427.56;;;14.91;77.44
29825;BME280;16713;52.916;12.834;2022-09-09T04:14:47;100435.06;;;14.94;77.02
29825;BME280;16713;52.916;12.834;2022-09-09T04:17:13;100435.44;;;14.89;76.72
29825;BME280;16713;52.916;12.834;2022-09-09T04:19:39;100437.00;;;14.83;77.48
29825;BME280;16713;52.916;12.834;2022-09-09T04:22:05;100444.09;;;14.87;76.81
29825;BME280;16713;52.916;12.834;2022-09-09T04:24:32;100442.53;;;14.90;76.31
29825;BME280;16713;52.916;12.834;2022-09-09T04:26:58;100447.25;;;14.86;76.17
29825;BME280;16713;52.916;12.834;2022-09-09T04:29:24;100440.16;;;14.88;75.59
29825;BME280;16713;52.916;12.834;2022-09-09T04:31:51;100437.75;;;14.83;75.94
29825;BME280;16713;52.916;12.834;2022-09-09T04:34:17;100449.19;;;14.82;75.81
29825;BME280;16713;52.916;12.834;2022-09-09T04:36:43;100449.19;;;14.71;76.92
29825;BME280;16713;52.916;12.834;2022-09-09T04:39:10;100445.63;;;14.70;75.48
29825;BME280;16713;52.916;12.834;2022-09-09T04:41:36;100449.56;;;14.69;75.84
29825;BME280;16713;52.916;12.834;2022-09-09T04:44:03;100460.22;;;14.71;75.72
29825;BME280;16713;52.916;12.834;2022-09-09T04:46:30;100449.94;;;14.64;76.32
29825;BME280;16713;52.916;12.834;2022-09-09T04:48:56;100462.56;;;14.65;76.71
29825;BME280;16713;52.916;12.834;2022-09-09T04:51:22;100464.53;;;14.61;76.49
29825;BME280;16713;52.916;12.834;2022-09-09T04:53:49;100466.81;;;14.56;75.53
29825;BME280;16713;52.916;12.834;2022-09-09T04:56:17;100467.97;;;14.48;75.55
29825;BME280;16713;52.916;12.834;2022-09-09T04:58:43;100469.53;;;14.49;76.03
29825;BME280;16713;52.916;12.834;2022-09-09T05:01:11;100464.41;;;14.51;76.04
29825;BME280;16713;52.916;12.834;2022-09-09T05:03:38;100475.44;;;14.47;76.52
29825;BME280;16713;52.916;12.834;2022-09-09T05:06:05;100474.66;;;14.47;76.35
29825;BME280;16713;52.916;12.834;2022-09-09T05:08:32;100471.75;;;14.22;77.27
29825;BME280;16713;52.916;12.834;2022-09-09T05:10:58;100468.97;;;14.19;77.85
29825;BME280;16713;52.916;12.834;2022-09-09T05:13:26;100472.13;;;14.17;78.64
29825;BME280;16713;52.916;12.834;2022-09-09T05:15:53;100477.59;;;14.14;77.52
29825;BME280;16713;52.916;12.834;2022-09-09T05:18:19;100471.66;;;14.05;78.60
29825;BME280;16713;52.916;12.834;2022-09-09T05:20:45;100468.03;;;13.94;79.64
29825;BME280;16713;52.916;12.834;2022-09-09T05:23:12;100463.25;;;13.87;79.12
29825;BME280;16713;52.916;12.834;2022-09-09T05:25:39;100469.56;;;13.88;81.05
29825;BME280;16713;52.916;12.834;2022-09-09T05:28:06;100467.19;;;13.90;80.66
29825;BME280;16713;52.916;12.834;2022-09-09T05:30:33;100474.16;;;13.77;81.72
29825;BME280;16713;52.916;12.834;2022-09-09T05:33:00;100476.47;;;13.68;81.79
29825;BME280;16713;52.916;12.834;2022-09-09T05:35:26;100478.84;;;13.69;81.79
29825;BME280;16713;52.916;12.834;2022-09-09T05:37:52;100474.69;;;13.46;83.67
29825;BME280;16713;52.916;12.834;2022-09-09T05:40:19;100468.72;;;13.40;83.70
29825;BME280;16713;52.916;12.834;2022-09-09T05:42:45;100466.66;;;13.30;84.87
29825;BME280;16713;52.916;12.834;2022-09-09T05:45:12;100461.50;;;13.28;84.92
29825;BME280;16713;52.916;12.834;2022-09-09T05:47:38;100457.75;;;13.07;86.61
29825;BME280;16713;52.916;12.834;2022-09-09T05:50:04;100457.00;;;13.10;86.33
29825;BME280;16713;52.916;12.834;2022-09-09T05:52:31;100444.44;;;13.12;88.19
29825;BME280;16713;52.916;12.834;2022-09-09T05:54:58;100456.50;;;13.37;87.71
29825;BME280;16713;52.916;12.834;2022-09-09T05:57:25;100447.38;;;13.30;88.24
29825;BME280;16713;52.916;12.834;2022-09-09T05:59:52;100453.78;;;13.45;87.71
29825;BME280;16713;52.916;12.834;2022-09-09T06:02:19;100443.56;;;13.45;87.77
29825;BME280;16713;52.916;12.834;2022-09-09T06:04:46;100452.34;;;13.58;89.27
29825;BME280;16713;52.916;12.834;2022-09-09T06:07:12;100453.03;;;13.88;87.24
29825;BME280;16713;52.916;12.834;2022-09-09T06:09:40;100461.03;;;14.07;87.61
29825;BME280;16713;52.916;12.834;2022-09-09T06:12:07;100451.75;;;14.36;86.45
29825;BME280;16713;52.916;12.834;2022-09-09T06:14:33;100453.38;;;14.44;86.09
29825;BME280;16713;52.916;12.834;2022-09-09T06:17:00;100449.47;;;14.55;85.73
29825;BME280;16713;52.916;12.834;2022-09-09T06:19:26;100456.19;;;14.58;85.15
29825;BME280;16713;52.916;12.834;2022-09-09T06:21:53;100457.06;;;14.69;85.34
29825;BME280;16713;52.916;12.834;2022-09-09T06:24:19;100463.41;;;14.80;84.81
29825;BME280;16713;52.916;12.834;2022-09-09T06:26:46;100461.47;;;14.84;84.74
29825;BME280;16713;52.916;12.834;2022-09-09T06:29:12;100462.47;;;14.55;85.93
29825;BME280;16713;52.916;12.834;2022-09-09T06:31:38;100468.38;;;14.57;85.44
29825;BME280;16713;52.916;12.834;2022-09-09T06:34:05;100470.84;;;14.65;85.57
29825;BME280;16713;52.916;12.834;2022-09-09T06:36:33;100465.63;;;14.57;85.78
29825;BME280;16713;52.916;12.834;2022-09-09T06:39:00;100469.44;;;14.31;88.55
29825;BME280;16713;52.916;12.834;2022-09-09T06:41:27;100475.31;;;14.23;89.60
29825;BME280;16713;52.916;12.834;2022-09-09T06:43:54;100480.09;;;14.33;89.48
29825;BME280;16713;52.916;12.834;2022-09-09T06:46:22;100474.59;;;14.36;89.92
29825;BME280;16713;52.916;12.834;2022-09-09T06:48:49;100475.16;;;14.63;88.88
29825;BME280;16713;52.916;12.834;2022-09-09T06:53:42;100459.72;;;14.55;87.62
29825;BME280;16713;52.916;12.834;2022-09-09T06:58:42;100465.19;;;14.48;90.08
29825;BME280;16713;52.916;12.834;2022-09-09T07:01:14;100463.59;;;14.43;89.36
29825;BME280;16713;52.916;12.834;2022-09-09T07:03:41;100463.63;;;14.47;89.24
29825;BME280;16713;52.916;12.834;2022-09-09T07:06:09;100470.03;;;14.65;88.78
29825;BME280;16713;52.916;12.834;2022-09-09T07:08:40;100470.03;;;14.65;88.87
29825;BME280;16713;52.916;12.834;2022-09-09T07:11:07;100472.44;;;14.70;89.28
29825;BME280;16713;52.916;12.834;2022-09-09T07:13:37;100474.03;;;14.71;89.45
29825;BME280;16713;52.916;12.834;2022-09-09T07:16:08;100480.69;;;14.63;89.78
29825;BME280;16713;52.916;12.834;2022-09-09T07:18:35;100478.78;;;14.85;89.85
29825;BME280;16713;52.916;12.834;2022-09-09T07:21:02;100473.66;;;14.76;89.78
29825;BME280;16713;52.916;12.834;2022-09-09T07:23:29;100475.28;;;14.91;91.21
29825;BME280;16713;52.916;12.834;2022-09-09T07:26:01;100482.41;;;14.92;90.33
29825;BME280;16713;52.916;12.834;2022-09-09T07:28:28;100474.13;;;14.99;89.70
29825;BME280;16713;52.916;12.834;2022-09-09T07:30:57;100476.88;;;14.99;90.21
29825;BME280;16713;52.916;12.834;2022-09-09T07:33:24;100471.34;;;14.96;88.75
29825;BME280;16713;52.916;12.834;2022-09-09T07:35:51;100473.34;;;14.99;89.65
29825;BME280;16713;52.916;12.834;2022-09-09T07:38:19;100473.31;;;14.95;91.45
29825;BME280;16713;52.916;12.834;2022-09-09T07:40:45;100473.78;;;15.25;90.32
29825;BME280;16713;52.916;12.834;2022-09-09T07:43:12;100467.06;;;15.19;90.96
29825;BME280;16713;52.916;12.834;2022-09-09T07:45:42;100475.00;;;15.24;90.07
29825;BME280;16713;52.916;12.834;2022-09-09T07:48:08;100473.38;;;15.23;90.14
29825;BME280;16713;52.916;12.834;2022-09-09T07:50:35;100478.94;;;15.30;90.84
29825;BME280;16713;52.916;12.834;2022-09-09T07:53:01;100482.09;;;15.29;90.85
29825;BME280;16713;52.916;12.834;2022-09-09T07:55:28;100477.38;;;15.36;90.55
29825;BME280;16713;52.916;12.834;2022-09-09T07:57:55;100467.94;;;15.51;88.39
29825;BME280;16713;52.916;12.834;2022-09-09T08:00:21;100476.63;;;15.57;89.12
29825;BME280;16713;52.916;12.834;2022-09-09T08:02:48;100477.03;;;15.55;89.48
29825;BME280;16713;52.916;12.834;2022-09-09T08:05:14;100481.78;;;15.69;89.24
29825;BME280;16713;52.916;12.834;2022-09-09T08:07:42;100479.00;;;15.79;88.97
29825;BME280;16713;52.916;12.834;2022-09-09T08:10:09;100487.31;;;15.83;89.84
29825;BME280;16713;52.916;12.834;2022-09-09T08:12:36;100481.78;;;15.86;89.50
29825;BME280;16713;52.916;12.834;2022-09-09T08:15:03;100490.06;;;15.93;90.26
29825;BME280;16713;52.916;12.834;2022-09-09T08:17:29;100485.72;;;15.99;89.16
29825;BME280;16713;52.916;12.834;2022-09-09T08:19:55;100489.28;;;16.07;88.01
29825;BME280;16713;52.916;12.834;2022-09-09T08:22:22;100484.53;;;16.07;88.15
29825;BME280;16713;52.916;12.834;2022-09-09T08:24:50;100477.81;;;16.16;88.56
29825;BME280;16713;52.916;12.834;2022-09-09T08:27:16;100478.97;;;16.22;88.46
29825;BME280;16713;52.916;12.834;2022-09-09T08:29:43;100473.03;;;16.30;88.57
29825;BME280;16713;52.916;12.834;2022-09-09T08:32:09;100473.03;;;16.23;87.74
29825;BME280;16713;52.916;12.834;2022-09-09T08:34:35;100482.13;;;16.45;87.29
29825;BME280;16713;52.916;12.834;2022-09-09T08:37:06;100484.91;;;16.41;87.27
29825;BME280;16713;52.916;12.834;2022-09-09T08:39:32;100485.66;;;16.49;88.04
29825;BME280;16713;52.916;12.834;2022-09-09T08:42:09;100482.13;;;16.41;87.87
29825;BME280;16713;52.916;12.834;2022-09-09T08:44:55;100489.56;;;16.62;88.48
29825;BME280;16713;52.916;12.834;2022-09-09T08:47:47;100493.91;;;16.63;88.96
29825;BME280;16713;52.916;12.834;2022-09-09T08:50:25;100491.13;;;16.77;88.51
29825;BME280;16713;52.916;12.834;2022-09-09T08:55:39;100490.72;;;16.78;87.69
29825;BME280;16713;52.916;12.834;2022-09-09T09:03:19;100490.72;;;16.75;87.39
29825;BME280;16713;52.916;12.834;2022-09-09T09:06:52;100501.78;;;16.78;88.19
29825;BME280;16713;52.916;12.834;2022-09-09T09:08:55;100503.78;;;16.71;87.97
29825;BME280;16713;52.916;12.834;2022-09-09T09:11:24;100500.94;;;16.88;87.43
29825;BME280;16713;52.916;12.834;2022-09-09T09:13:58;100486.72;;;16.79;86.86
29825;BME280;16713;52.916;12.834;2022-09-09T09:16:38;100495.84;;;16.83;86.97
29825;BME280;16713;52.916;12.834;2022-09-09T09:19:12;100496.59;;;16.87;86.20
29825;BME280;16713;52.916;12.834;2022-09-09T09:21:44;100497.78;;;16.86;87.85
29825;BME280;16713;52.916;12.834;2022-09-09T09:24:16;100513.22;;;16.91;87.65
29825;BME280;16713;52.916;12.834;2022-09-09T09:26:47;100515.19;;;16.90;87.09
29825;BME280;16713;52.916;12.834;2022-09-09T09:29:17;100508.44;;;16.95;86.69
29825;BME280;16713;52.916;12.834;2022-09-09T09:31:51;100510.44;;;16.91;86.48
29825;BME280;16713;52.916;12.834;2022-09-09T09:34:20;100503.28;;;17.00;87.27
29825;BME280;16713;52.916;12.834;2022-09-09T09:36:56;100503.25;;;17.04;87.83
29825;BME280;16713;52.916;12.834;2022-09-09T09:39:24;100509.50;;;17.22;86.08
29825;BME280;16713;52.916;12.834;2022-09-09T09:42:11;100502.47;;;17.03;85.55
29825;BME280;16713;52.916;12.834;2022-09-09T09:44:40;100503.22;;;17.18;85.19
29825;BME280;16713;52.916;12.834;2022-09-09T09:49:33;100510.25;;;17.33;87.03
29825;BME280;16713;52.916;12.834;2022-09-09T09:52:00;100507.78;;;17.49;86.56
29825;BME280;16713;52.916;12.834;2022-09-09T09:54:27;100513.34;;;17.49;86.23
29825;BME280;16713;52.916;12.834;2022-09-09T09:56:55;100514.06;;;17.57;84.77
29825;BME280;16713;52.916;12.834;2022-09-09T10:02:22;100509.91;;;17.82;84.52
29825;BME280;16713;52.916;12.834;2022-09-09T10:05:03;100507.19;;;17.75;84.99
29825;BME280;16713;52.916;12.834;2022-09-09T10:07:30;100519.06;;;17.79;86.29
29825;BME280;16713;52.916;12.834;2022-09-09T10:09:56;100513.41;;;17.90;85.80
29825;BME280;16713;52.916;12.834;2022-09-09T10:12:36;100517.38;;;17.92;83.07
29825;BME280;16713;52.916;12.834;2022-09-09T10:17:47;100511.41;;;17.94;82.58
29825;BME280;16713;52.916;12.834;2022-09-09T10:22:51;100518.13;;;18.00;82.15
29825;BME280;16713;52.916;12.834;2022-09-09T10:28:10;100523.25;;;18.01;81.04
29825;BME280;16713;52.916;12.834;2022-09-09T10:34:10;100524.47;;;18.00;81.72
29825;BME280;16713;52.916;12.834;2022-09-09T10:38:52;100532.84;;;17.86;83.34
29825;BME280;16713;52.916;12.834;2022-09-09T10:44:01;100532.47;;;17.88;84.11
29825;BME280;16713;52.916;12.834;2022-09-09T10:46:51;100533.25;;;17.88;83.79
29825;BME280;16713;52.916;12.834;2022-09-09T10:56:58;100549.50;;;17.86;83.07
29825;BME280;16713;52.916;12.834;2022-09-09T10:59:27;100541.16;;;17.90;83.71
29825;BME280;16713;52.916;12.834;2022-09-09T11:02:04;100543.91;;;17.93;82.49
29825;BME280;16713;52.916;12.834;2022-09-09T11:04:35;100541.22;;;17.83;82.71
29825;BME280;16713;52.916;12.834;2022-09-09T11:07:07;100540.00;;;17.87;82.26
29825;BME280;16713;52.916;12.834;2022-09-09T11:09:39;100535.59;;;17.97;82.20
29825;BME280;16713;52.916;12.834;2022-09-09T11:12:09;100522.94;;;17.89;81.63
29825;BME280;16713;52.916;12.834;2022-09-09T11:14:42;100521.75;;;17.86;82.31
29825;BME280;16713;52.916;12.834;2022-09-09T11:17:14;100531.69;;;17.87;82.12
29825;BME280;16713;52.916;12.834;2022-09-09T11:19:43;100533.25;;;17.88;82.37
29825;BME280;16713;52.916;12.834;2022-09-09T11:22:27;100528.88;;;17.91;82.28
29825;BME280;16713;52.916;12.834;2022-09-09T11:25:39;100536.84;;;17.82;81.40
29825;BME280;16713;52.916;12.834;2022-09-09T11:33:05;100536.88;;;17.78;81.84
29825;BME280;16713;52.916;12.834;2022-09-09T11:38:14;100542.38;;;17.89;82.17
29825;BME280;16713;52.916;12.834;2022-09-09T11:40:41;100536.81;;;17.96;81.99
29825;BME280;16713;52.916;12.834;2022-09-09T11:43:18;100545.41;;;18.08;81.57
29825;BME280;16713;52.916;12.834;2022-09-09T11:45:52;100555.25;;;18.16;80.81
29825;BME280;16713;52.916;12.834;2022-09-09T11:48:28;100552.47;;;18.20;80.99
29825;BME280;16713;52.916;12.834;2022-09-09T11:50:59;100554.78;;;18.25;80.56
29825;BME280;16713;52.916;12.834;2022-09-09T11:53:26;100548.81;;;18.26;80.56
29825;BME280;16713;52.916;12.834;2022-09-09T11:56:09;100549.16;;;18.32;80.68
29825;BME280;16713;52.916;12.834;2022-09-09T11:58:37;100548.34;;;18.35;79.58
29825;BME280;16713;52.916;12.834;2022-09-09T12:01:15;100553.06;;;18.38;80.32
29825;BME280;16713;52.916;12.834;2022-09-09T12:03:43;100553.03;;;18.41;80.01
29825;BME280;16713;52.916;12.834;2022-09-09T12:06:18;100540.34;;;18.44;79.63
29825;BME280;16713;52.916;12.834;2022-09-09T12:08:47;100541.09;;;18.44;80.24
29825;BME280;16713;52.916;12.834;2022-09-09T12:11:25;100542.22;;;18.50;79.63
29825;BME280;16713;52.916;12.834;2022-09-09T12:13:53;100537.00;;;18.56;77.77
29825;BME280;16713;52.916;12.834;2022-09-09T12:16:33;100538.59;;;18.57;78.21
29825;BME280;16713;52.916;12.834;2022-09-09T12:21:39;100537.06;;;18.52;77.68
29825;BME280;16713;52.916;12.834;2022-09-09T12:24:11;100533.53;;;18.48;77.16
29825;BME280;16713;52.916;12.834;2022-09-09T12:26:43;100542.72;;;18.42;77.49
29825;BME280;16713;52.916;12.834;2022-09-09T12:36:43;100531.66;;;18.38;77.24
29825;BME280;16713;52.916;12.834;2022-09-09T12:39:20;100530.88;;;18.34;77.30
29825;BME280;16713;52.916;12.834;2022-09-09T12:41:51;100531.38;;;18.26;76.68
29825;BME280;16713;52.916;12.834;2022-09-09T12:44:23;100532.63;;;18.21;78.72
29825;BME280;16713;52.916;12.834;2022-09-09T12:46:50;100527.00;;;18.25;77.10
29825;BME280;16713;52.916;12.834;2022-09-09T12:49:26;100527.41;;;18.23;77.11
29825;BME280;16713;52.916;12.834;2022-09-09T12:51:54;100525.59;;;18.06;77.11
29825;BME280;16713;52.916;12.834;2022-09-09T12:54:21;100525.53;;;18.13;78.00
29825;BME280;16713;52.916;12.834;2022-09-09T12:56:47;100525.97;;;18.12;76.90
29825;BME280;16713;52.916;12.834;2022-09-09T12:59:24;100518.41;;;18.12;77.86
29825;BME280;16713;52.916;12.834;2022-09-09T13:01:55;100515.22;;;18.14;77.56
29825;BME280;16713;52.916;12.834;2022-09-09T13:04:22;100512.09;;;18.12;77.53
29825;BME280;16713;52.916;12.834;2022-09-09T13:06:48;100512.88;;;18.09;75.84
29825;BME280;16713;52.916;12.834;2022-09-09T13:09:15;100516.91;;;18.01;77.33
29825;BME280;16713;52.916;12.834;2022-09-09T13:11:48;100518.50;;;18.02;76.36
29825;BME280;16713;52.916;12.834;2022-09-09T13:14:16;100528.00;;;18.04;78.12
29825;BME280;16713;52.916;12.834;2022-09-09T13:16:54;100524.88;;;17.95;78.07
29825;BME280;16713;52.916;12.834;2022-09-09T13:19:21;100522.91;;;17.92;79.19
29825;BME280;16713;52.916;12.834;2022-09-09T13:21:48;100524.09;;;17.91;78.73
29825;BME280;16713;52.916;12.834;2022-09-09T13:27:02;100507.44;;;17.91;78.38
29825;BME280;16713;52.916;12.834;2022-09-09T13:29:30;100513.00;;;17.91;78.74
29825;BME280;16713;52.916;12.834;2022-09-09T13:32:06;100505.06;;;17.93;78.61
29825;BME280;16713;52.916;12.834;2022-09-09T13:34:38;100497.94;;;17.96;78.18
29825;BME280;16713;52.916;12.834;2022-09-09T13:37:06;100490.78;;;17.95;79.00
29825;BME280;16713;52.916;12.834;2022-09-09T13:39:33;100495.06;;;18.06;79.23
29825;BME280;16713;52.916;12.834;2022-09-09T13:42:01;100498.59;;;18.10;78.14
29825;BME280;16713;52.916;12.834;2022-09-09T13:44:30;100506.06;;;18.17;77.98
29825;BME280;16713;52.916;12.834;2022-09-09T13:47:22;100506.81;;;18.24;78.24
29825;BME280;16713;52.916;12.834;2022-09-09T13:49:46;100499.19;;;18.32;78.18
29825;BME280;16713;52.916;12.834;2022-09-09T13:52:13;100507.84;;;18.37;77.65
29825;BME280;16713;52.916;12.834;2022-09-09T13:54:40;100506.25;;;18.40;77.65
29825;BME280;16713;52.916;12.834;2022-09-09T13:57:49;100501.44;;;18.44;76.50
29825;BME280;16713;52.916;12.834;2022-09-09T14:00:01;100501.81;;;18.46;76.94
29825;BME280;16713;52.916;12.834;2022-09-09T14:02:31;100506.94;;;18.47;76.44
29825;BME280;16713;52.916;12.834;2022-09-09T14:04:57;100502.16;;;18.51;76.14
29825;BME280;16713;52.916;12.834;2022-09-09T14:07:24;100499.75;;;18.53;76.11
29825;BME280;16713;52.916;12.834;2022-09-09T14:09:51;100510.06;;;18.53;76.85
29825;BME280;16713;52.916;12.834;2022-09-09T14:12:18;100503.34;;;18.50;76.76
29825;BME280;16713;52.916;12.834;2022-09-09T14:14:44;100504.94;;;18.51;77.00
29825;BME280;16713;52.916;12.834;2022-09-09T14:17:11;100497.44;;;18.48;77.80
29825;BME280;16713;52.916;12.834;2022-09-09T14:19:37;100501.44;;;18.44;77.61
29825;BME280;16713;52.916;12.834;2022-09-09T14:22:04;100505.13;;;18.34;78.01
29825;BME280;16713;52.916;12.834;2022-09-09T14:24:30;100504.00;;;18.28;78.27
29825;BME280;16713;52.916;12.834;2022-09-09T14:26:56;100504.75;;;18.28;79.25
29825;BME280;16713;52.916;12.834;2022-09-09T14:29:23;100506.81;;;18.21;78.76
29825;BME280;16713;52.916;12.834;2022-09-09T14:31:51;100517.56;;;18.15;79.16
29825;BME280;16713;52.916;12.834;2022-09-09T14:34:17;100515.25;;;18.10;80.21
29825;BME280;16713;52.916;12.834;2022-09-09T14:36:44;100511.72;;;18.06;80.25
29825;BME280;16713;52.916;12.834;2022-09-09T14:39:11;100522.50;;;17.97;81.71
29825;BME280;16713;52.916;12.834;2022-09-09T14:41:38;100525.69;;;17.92;82.17
29825;BME280;16713;52.916;12.834;2022-09-09T14:44:04;100531.25;;;17.92;83.54
29825;BME280;16713;52.916;12.834;2022-09-09T14:46:30;100521.75;;;17.86;82.54
29825;BME280;16713;52.916;12.834;2022-09-09T14:48:58;100525.41;;;17.80;82.72